sensor_id;sensor_type;location;lat;lon;timestamp;P1;durP1;ratioP1;P2;durP2;ratioP2
15454;SDS011;21057;51.024;7.540;2023-02-20T00:00:39;29.63;;;27.53;;
15454;SDS011;21057;51.024;7.540;2023-02-20T00:03:08;29.63;;;27.83;;
15454;SDS011;21057;51.024;7.540;2023-02-20T00:05:35;31.67;;;29.03;;
15454;SDS011;21057;51.024;7.540;2023-02-20T00:08:02;29.47;;;27.57;;
15454;SDS011;21057;51.024;7.540;2023-02-20T00:10:30;29.83;;;27.93;;
15454;SDS011;21057;51.024;7.540;2023-02-20T00:12:59;29.67;;;27.80;;
15454;SDS011;21057;51.024;7.540;2023-02-20T00:15:27;28.37;;;26.47;;
15454;SDS011;21057;51.024;7.540;2023-02-20T00:17:54;28.83;;;27.10;;
15454;SDS011;21057;51.024;7.540;2023-02-20T00:20:22;29.00;;;27.20;;
15454;SDS011;21057;51.024;7.540;2023-02-20T00:22:49;32.33;;;30.00;;
15454;SDS011;21057;51.024;7.540;2023-02-20T00:25:17;28.67;;;26.87;;
15454;SDS011;21057;51.024;7.540;2023-02-20T00:27:53;28.40;;;26.60;;
15454;SDS011;21057;51.024;7.540;2023-02-20T00:30:21;29.20;;;27.30;;
15454;SDS011;21057;51.024;7.540;2023-02-20T00:32:52;29.47;;;27.50;;
15454;SDS011;21057;51.024;7.540;2023-02-20T00:35:20;28.40;;;26.60;;
15454;SDS011;21057;51.024;7.540;2023-02-20T00:37:49;29.60;;;27.60;;
15454;SDS011;21057;51.024;7.540;2023-02-20T00:40:18;30.27;;;28.07;;
15454;SDS011;21057;51.024;7.540;2023-02-20T00:42:47;30.00;;;28.00;;
15454;SDS011;21057;51.024;7.540;2023-02-20T00:45:14;29.87;;;27.90;;
15454;SDS011;21057;51.024;7.540;2023-02-20T00:47:42;32.07;;;28.90;;
15454;SDS011;21057;51.024;7.540;2023-02-20T00:50:11;31.70;;;29.33;;
15454;SDS011;21057;51.024;7.540;2023-02-20T00:52:40;31.00;;;29.00;;
15454;SDS011;21057;51.024;7.540;2023-02-20T00:55:07;30.50;;;28.47;;
15454;SDS011;21057;51.024;7.540;2023-02-20T00:57:34;33.97;;;31.67;;
15454;SDS011;21057;51.024;7.540;2023-02-20T01:00:01;30.70;;;28.70;;
15454;SDS011;21057;51.024;7.540;2023-02-20T01:02:29;33.20;;;30.37;;
15454;SDS011;21057;51.024;7.540;2023-02-20T01:04:56;32.73;;;30.50;;
15454;SDS011;21057;51.024;7.540;2023-02-20T01:07:25;33.07;;;30.57;;
15454;SDS011;21057;51.024;7.540;2023-02-20T01:09:52;32.60;;;29.67;;
15454;SDS011;21057;51.024;7.540;2023-02-20T01:12:18;32.93;;;30.60;;
15454;SDS011;21057;51.024;7.540;2023-02-20T01:15:04;32.77;;;30.07;;
15454;SDS011;21057;51.024;7.540;2023-02-20T01:17:32;35.67;;;31.87;;
15454;SDS011;21057;51.024;7.540;2023-02-20T01:19:59;33.73;;;30.70;;
15454;SDS011;21057;51.024;7.540;2023-02-20T01:22:27;33.00;;;30.40;;
15454;SDS011;21057;51.024;7.540;2023-02-20T01:24:54;33.33;;;30.80;;
15454;SDS011;21057;51.024;7.540;2023-02-20T01:27:20;36.50;;;33.50;;
15454;SDS011;21057;51.024;7.540;2023-02-20T01:29:47;35.83;;;33.13;;
15454;SDS011;21057;51.024;7.540;2023-02-20T01:32:14;35.93;;;33.17;;
15454;SDS011;21057;51.024;7.540;2023-02-20T01:34:41;35.93;;;33.03;;
15454;SDS011;21057;51.024;7.540;2023-02-20T01:37:09;37.90;;;34.67;;
15454;SDS011;21057;51.024;7.540;2023-02-20T01:39:40;36.27;;;33.37;;
15454;SDS011;21057;51.024;7.540;2023-02-20T01:42:07;34.77;;;31.93;;
15454;SDS011;21057;51.024;7.540;2023-02-20T01:44:41;35.83;;;33.10;;
15454;SDS011;21057;51.024;7.540;2023-02-20T01:47:09;35.07;;;32.60;;
15454;SDS011;21057;51.024;7.540;2023-02-20T01:49:41;32.40;;;30.17;;
15454;SDS011;21057;51.024;7.540;2023-02-20T01:52:14;33.13;;;30.70;;
15454;SDS011;21057;51.024;7.540;2023-02-20T01:54:47;36.17;;;33.53;;
15454;SDS011;21057;51.024;7.540;2023-02-20T01:57:18;33.20;;;30.90;;
15454;SDS011;21057;51.024;7.540;2023-02-20T01:59:47;32.80;;;30.50;;
15454;SDS011;21057;51.024;7.540;2023-02-20T02:02:15;34.37;;;31.70;;
15454;SDS011;21057;51.024;7.540;2023-02-20T02:04:42;34.23;;;31.77;;
15454;SDS011;21057;51.024;7.540;2023-02-20T02:07:11;35.17;;;32.63;;
15454;SDS011;21057;51.024;7.540;2023-02-20T02:09:41;33.37;;;31.03;;
15454;SDS011;21057;51.024;7.540;2023-02-20T02:12:14;32.13;;;30.03;;
15454;SDS011;21057;51.024;7.540;2023-02-20T02:14:42;33.73;;;31.30;;
15454;SDS011;21057;51.024;7.540;2023-02-20T02:23:12;33.67;;;31.30;;
15454;SDS011;21057;51.024;7.540;2023-02-20T02:26:04;33.03;;;30.47;;
15454;SDS011;21057;51.024;7.540;2023-02-20T02:29:07;32.83;;;30.43;;
15454;SDS011;21057;51.024;7.540;2023-02-20T02:37:45;31.67;;;29.37;;
15454;SDS011;21057;51.024;7.540;2023-02-20T02:40:24;32.67;;;30.10;;
15454;SDS011;21057;51.024;7.540;2023-02-20T02:42:56;34.23;;;31.30;;
15454;SDS011;21057;51.024;7.540;2023-02-20T02:45:39;35.17;;;32.17;;
15454;SDS011;21057;51.024;7.540;2023-02-20T02:48:13;35.80;;;33.13;;
15454;SDS011;21057;51.024;7.540;2023-02-20T02:50:47;35.27;;;31.93;;
15454;SDS011;21057;51.024;7.540;2023-02-20T02:53:17;35.43;;;32.37;;
15454;SDS011;21057;51.024;7.540;2023-02-20T02:55:44;35.13;;;32.37;;
15454;SDS011;21057;51.024;7.540;2023-02-20T02:58:11;34.27;;;31.60;;
15454;SDS011;21057;51.024;7.540;2023-02-20T03:00:42;34.53;;;31.73;;
15454;SDS011;21057;51.024;7.540;2023-02-20T03:03:15;36.67;;;33.30;;
15454;SDS011;21057;51.024;7.540;2023-02-20T03:05:46;35.17;;;32.57;;
15454;SDS011;21057;51.024;7.540;2023-02-20T03:08:20;35.17;;;32.50;;
15454;SDS011;21057;51.024;7.540;2023-02-20T03:10:58;34.87;;;32.43;;
15454;SDS011;21057;51.024;7.540;2023-02-20T03:13:29;34.37;;;32.03;;
15454;SDS011;21057;51.024;7.540;2023-02-20T03:16:21;35.93;;;33.23;;
15454;SDS011;21057;51.024;7.540;2023-02-20T03:18:53;34.97;;;32.07;;
15454;SDS011;21057;51.024;7.540;2023-02-20T03:21:24;35.03;;;32.23;;
15454;SDS011;21057;51.024;7.540;2023-02-20T03:23:56;36.17;;;33.37;;
15454;SDS011;21057;51.024;7.540;2023-02-20T03:26:27;33.17;;;30.87;;
15454;SDS011;21057;51.024;7.540;2023-02-20T03:29:00;36.37;;;33.67;;
15454;SDS011;21057;51.024;7.540;2023-02-20T03:31:32;36.53;;;33.97;;
15454;SDS011;21057;51.024;7.540;2023-02-20T03:34:05;36.97;;;34.07;;
15454;SDS011;21057;51.024;7.540;2023-02-20T03:36:53;36.23;;;32.97;;
15454;SDS011;21057;51.024;7.540;2023-02-20T03:39:53;37.60;;;34.80;;
15454;SDS011;21057;51.024;7.540;2023-02-20T03:42:42;35.73;;;33.07;;
15454;SDS011;21057;51.024;7.540;2023-02-20T03:45:36;35.73;;;32.70;;
15454;SDS011;21057;51.024;7.540;2023-02-20T03:48:06;38.20;;;35.23;;
15454;SDS011;21057;51.024;7.540;2023-02-20T03:50:39;39.03;;;35.70;;
15454;SDS011;21057;51.024;7.540;2023-02-20T03:53:23;37.03;;;33.97;;
15454;SDS011;21057;51.024;7.540;2023-02-20T03:55:52;36.30;;;33.40;;
15454;SDS011;21057;51.024;7.540;2023-02-20T03:58:26;37.27;;;34.10;;
15454;SDS011;21057;51.024;7.540;2023-02-20T04:00:57;37.43;;;34.80;;
15454;SDS011;21057;51.024;7.540;2023-02-20T04:03:28;36.63;;;34.03;;
15454;SDS011;21057;51.024;7.540;2023-02-20T04:06:04;36.27;;;33.60;;
15454;SDS011;21057;51.024;7.540;2023-02-20T04:08:34;37.20;;;34.10;;
15454;SDS011;21057;51.024;7.540;2023-02-20T04:11:07;35.33;;;32.73;;
15454;SDS011;21057;51.024;7.540;2023-02-20T04:13:36;37.03;;;34.20;;
15454;SDS011;21057;51.024;7.540;2023-02-20T04:16:06;37.20;;;34.67;;
15454;SDS011;21057;51.024;7.540;2023-02-20T04:18:33;36.30;;;33.70;;
15454;SDS011;21057;51.024;7.540;2023-02-20T04:21:10;39.27;;;36.20;;
15454;SDS011;21057;51.024;7.540;2023-02-20T04:23:44;35.03;;;32.77;;
15454;SDS011;21057;51.024;7.540;2023-02-20T04:26:16;37.83;;;34.93;;
15454;SDS011;21057;51.024;7.540;2023-02-20T04:28:45;37.97;;;35.30;;
15454;SDS011;21057;51.024;7.540;2023-02-20T04:31:13;36.23;;;33.87;;
15454;SDS011;21057;51.024;7.540;2023-02-20T04:33:42;37.00;;;34.53;;
15454;SDS011;21057;51.024;7.540;2023-02-20T04:36:09;37.27;;;34.57;;
15454;SDS011;21057;51.024;7.540;2023-02-20T04:38:36;36.23;;;33.60;;
15454;SDS011;21057;51.024;7.540;2023-02-20T04:41:03;35.63;;;33.13;;
15454;SDS011;21057;51.024;7.540;2023-02-20T04:43:31;38.90;;;36.07;;
15454;SDS011;21057;51.024;7.540;2023-02-20T04:45:58;36.23;;;33.73;;
15454;SDS011;21057;51.024;7.540;2023-02-20T04:48:27;36.43;;;33.77;;
15454;SDS011;21057;51.024;7.540;2023-02-20T04:50:54;39.57;;;36.73;;
15454;SDS011;21057;51.024;7.540;2023-02-20T04:53:21;36.03;;;33.53;;
15454;SDS011;21057;51.024;7.540;2023-02-20T04:55:48;37.37;;;34.13;;
15454;SDS011;21057;51.024;7.540;2023-02-20T04:58:18;36.63;;;34.13;;
15454;SDS011;21057;51.024;7.540;2023-02-20T05:00:46;39.50;;;36.87;;
15454;SDS011;21057;51.024;7.540;2023-02-20T05:03:13;35.87;;;33.37;;
15454;SDS011;21057;51.024;7.540;2023-02-20T05:05:40;38.10;;;35.63;;
15454;SDS011;21057;51.024;7.540;2023-02-20T05:08:07;38.13;;;35.27;;
15454;SDS011;21057;51.024;7.540;2023-02-20T05:10:39;36.00;;;33.40;;
15454;SDS011;21057;51.024;7.540;2023-02-20T05:13:06;35.57;;;33.07;;
15454;SDS011;21057;51.024;7.540;2023-02-20T05:15:35;37.67;;;34.70;;
15454;SDS011;21057;51.024;7.540;2023-02-20T05:18:03;36.63;;;34.03;;
15454;SDS011;21057;51.024;7.540;2023-02-20T05:20:30;36.30;;;33.70;;
15454;SDS011;21057;51.024;7.540;2023-02-20T05:23:23;35.73;;;33.20;;
15454;SDS011;21057;51.024;7.540;2023-02-20T05:25:50;35.43;;;32.93;;
15454;SDS011;21057;51.024;7.540;2023-02-20T05:28:18;36.17;;;33.53;;
15454;SDS011;21057;51.024;7.540;2023-02-20T05:30:47;36.10;;;33.37;;
15454;SDS011;21057;51.024;7.540;2023-02-20T05:33:15;36.57;;;33.83;;
15454;SDS011;21057;51.024;7.540;2023-02-20T05:35:42;38.83;;;36.13;;
15454;SDS011;21057;51.024;7.540;2023-02-20T05:38:09;37.20;;;34.30;;
15454;SDS011;21057;51.024;7.540;2023-02-20T05:40:42;39.27;;;36.37;;
15454;SDS011;21057;51.024;7.540;2023-02-20T05:43:08;36.97;;;34.13;;
15454;SDS011;21057;51.024;7.540;2023-02-20T05:45:43;38.10;;;34.97;;
15454;SDS011;21057;51.024;7.540;2023-02-20T05:48:16;36.23;;;33.87;;
15454;SDS011;21057;51.024;7.540;2023-02-20T05:50:43;37.77;;;34.87;;
15454;SDS011;21057;51.024;7.540;2023-02-20T05:53:11;35.43;;;33.23;;
15454;SDS011;21057;51.024;7.540;2023-02-20T05:55:38;38.60;;;35.90;;
15454;SDS011;21057;51.024;7.540;2023-02-20T05:58:05;37.63;;;35.07;;
15454;SDS011;21057;51.024;7.540;2023-02-20T06:00:43;41.13;;;38.23;;
15454;SDS011;21057;51.024;7.540;2023-02-20T06:03:10;38.67;;;36.00;;
15454;SDS011;21057;51.024;7.540;2023-02-20T06:05:38;38.10;;;35.53;;
15454;SDS011;21057;51.024;7.540;2023-02-20T06:08:05;38.80;;;36.07;;
15454;SDS011;21057;51.024;7.540;2023-02-20T06:10:33;39.67;;;36.97;;
15454;SDS011;21057;51.024;7.540;2023-02-20T06:13:00;40.87;;;37.93;;
15454;SDS011;21057;51.024;7.540;2023-02-20T06:15:34;41.93;;;38.40;;
15454;SDS011;21057;51.024;7.540;2023-02-20T06:18:01;39.40;;;36.63;;
15454;SDS011;21057;51.024;7.540;2023-02-20T06:20:30;40.57;;;37.93;;
15454;SDS011;21057;51.024;7.540;2023-02-20T06:22:58;41.07;;;38.27;;
15454;SDS011;21057;51.024;7.540;2023-02-20T06:25:25;38.97;;;36.57;;
15454;SDS011;21057;51.024;7.540;2023-02-20T06:27:52;41.03;;;37.87;;
15454;SDS011;21057;51.024;7.540;2023-02-20T06:30:19;41.23;;;38.30;;
15454;SDS011;21057;51.024;7.540;2023-02-20T06:32:49;40.30;;;37.67;;
15454;SDS011;21057;51.024;7.540;2023-02-20T06:35:16;38.20;;;35.50;;
15454;SDS011;21057;51.024;7.540;2023-02-20T06:38:00;38.53;;;35.93;;
15454;SDS011;21057;51.024;7.540;2023-02-20T06:40:39;40.67;;;38.07;;
15454;SDS011;21057;51.024;7.540;2023-02-20T06:43:06;40.30;;;37.77;;
15454;SDS011;21057;51.024;7.540;2023-02-20T06:45:33;37.70;;;35.37;;
15454;SDS011;21057;51.024;7.540;2023-02-20T06:48:00;38.93;;;36.23;;
15454;SDS011;21057;51.024;7.540;2023-02-20T06:50:34;38.47;;;35.90;;
15454;SDS011;21057;51.024;7.540;2023-02-20T06:53:12;39.70;;;37.20;;
15454;SDS011;21057;51.024;7.540;2023-02-20T06:55:39;39.57;;;36.93;;
15454;SDS011;21057;51.024;7.540;2023-02-20T06:58:05;39.63;;;36.97;;
15454;SDS011;21057;51.024;7.540;2023-02-20T07:00:32;38.20;;;35.30;;
15454;SDS011;21057;51.024;7.540;2023-02-20T07:02:59;37.50;;;34.87;;
15454;SDS011;21057;51.024;7.540;2023-02-20T07:05:27;36.83;;;33.73;;
15454;SDS011;21057;51.024;7.540;2023-02-20T07:07:54;37.43;;;34.57;;
15454;SDS011;21057;51.024;7.540;2023-02-20T07:10:33;39.57;;;36.23;;
15454;SDS011;21057;51.024;7.540;2023-02-20T07:13:00;37.80;;;35.10;;
15454;SDS011;21057;51.024;7.540;2023-02-20T07:15:31;40.33;;;36.27;;
15454;SDS011;21057;51.024;7.540;2023-02-20T07:17:58;37.43;;;35.07;;
15454;SDS011;21057;51.024;7.540;2023-02-20T07:20:24;38.03;;;35.33;;
15454;SDS011;21057;51.024;7.540;2023-02-20T07:22:51;36.80;;;34.03;;
15454;SDS011;21057;51.024;7.540;2023-02-20T07:25:19;38.57;;;35.37;;
15454;SDS011;21057;51.024;7.540;2023-02-20T07:27:47;37.43;;;34.57;;
15454;SDS011;21057;51.024;7.540;2023-02-20T07:30:14;37.33;;;34.90;;
15454;SDS011;21057;51.024;7.540;2023-02-20T07:32:41;38.40;;;35.57;;
15454;SDS011;21057;51.024;7.540;2023-02-20T07:35:08;38.63;;;36.00;;
15454;SDS011;21057;51.024;7.540;2023-02-20T07:37:35;40.37;;;37.57;;
15454;SDS011;21057;51.024;7.540;2023-02-20T07:40:05;38.07;;;35.27;;
15454;SDS011;21057;51.024;7.540;2023-02-20T07:42:33;38.23;;;35.70;;
15454;SDS011;21057;51.024;7.540;2023-02-20T07:45:08;37.07;;;34.57;;
15454;SDS011;21057;51.024;7.540;2023-02-20T07:47:37;39.53;;;36.17;;
15454;SDS011;21057;51.024;7.540;2023-02-20T07:50:05;36.53;;;33.83;;
15454;SDS011;21057;51.024;7.540;2023-02-20T07:52:32;38.57;;;35.67;;
15454;SDS011;21057;51.024;7.540;2023-02-20T07:55:01;43.83;;;38.83;;
15454;SDS011;21057;51.024;7.540;2023-02-20T07:57:27;38.73;;;35.73;;
15454;SDS011;21057;51.024;7.540;2023-02-20T07:59:56;40.03;;;37.13;;
15454;SDS011;21057;51.024;7.540;2023-02-20T08:02:29;37.80;;;34.97;;
15454;SDS011;21057;51.024;7.540;2023-02-20T08:04:57;37.67;;;34.93;;
15454;SDS011;21057;51.024;7.540;2023-02-20T08:07:26;38.90;;;36.03;;
15454;SDS011;21057;51.024;7.540;2023-02-20T08:09:53;38.47;;;35.97;;
15454;SDS011;21057;51.024;7.540;2023-02-20T08:12:22;38.10;;;35.13;;
15454;SDS011;21057;51.024;7.540;2023-02-20T08:14:49;38.70;;;36.10;;
15454;SDS011;21057;51.024;7.540;2023-02-20T08:17:16;38.60;;;34.97;;
15454;SDS011;21057;51.024;7.540;2023-02-20T08:19:51;38.93;;;36.43;;
15454;SDS011;21057;51.024;7.540;2023-02-20T08:22:18;40.37;;;37.87;;
15454;SDS011;21057;51.024;7.540;2023-02-20T08:24:53;41.33;;;38.47;;
15454;SDS011;21057;51.024;7.540;2023-02-20T08:27:20;38.13;;;35.53;;
15454;SDS011;21057;51.024;7.540;2023-02-20T08:29:46;40.87;;;37.67;;
15454;SDS011;21057;51.024;7.540;2023-02-20T08:32:13;39.57;;;37.00;;
15454;SDS011;21057;51.024;7.540;2023-02-20T08:34:40;40.90;;;38.10;;
15454;SDS011;21057;51.024;7.540;2023-02-20T08:39:45;38.00;;;35.33;;
15454;SDS011;21057;51.024;7.540;2023-02-20T08:42:13;38.50;;;36.00;;
15454;SDS011;21057;51.024;7.540;2023-02-20T08:44:47;37.97;;;34.93;;
15454;SDS011;21057;51.024;7.540;2023-02-20T08:47:23;35.13;;;32.90;;
15454;SDS011;21057;51.024;7.540;2023-02-20T08:49:57;33.83;;;31.67;;
15454;SDS011;21057;51.024;7.540;2023-02-20T08:52:26;35.67;;;33.00;;
15454;SDS011;21057;51.024;7.540;2023-02-20T08:55:02;37.83;;;34.63;;
15454;SDS011;21057;51.024;7.540;2023-02-20T08:57:30;37.33;;;34.60;;
15454;SDS011;21057;51.024;7.540;2023-02-20T08:59:58;37.73;;;34.70;;
15454;SDS011;21057;51.024;7.540;2023-02-20T09:02:26;39.13;;;36.27;;
15454;SDS011;21057;51.024;7.540;2023-02-20T09:04:56;38.47;;;35.73;;
15454;SDS011;21057;51.024;7.540;2023-02-20T09:07:31;43.97;;;40.80;;
15454;SDS011;21057;51.024;7.540;2023-02-20T09:10:05;44.37;;;40.27;;
15454;SDS011;21057;51.024;7.540;2023-02-20T09:15:12;42.03;;;38.63;;
15454;SDS011;21057;51.024;7.540;2023-02-20T09:17:42;44.80;;;41.40;;
15454;SDS011;21057;51.024;7.540;2023-02-20T09:20:10;42.77;;;38.47;;
15454;SDS011;21057;51.024;7.540;2023-02-20T09:22:41;42.17;;;38.83;;
15454;SDS011;21057;51.024;7.540;2023-02-20T09:25:14;43.60;;;39.23;;
15454;SDS011;21057;51.024;7.540;2023-02-20T09:27:45;43.00;;;39.63;;
15454;SDS011;21057;51.024;7.540;2023-02-20T09:30:14;45.13;;;41.13;;
15454;SDS011;21057;51.024;7.540;2023-02-20T09:32:43;46.57;;;40.10;;
15454;SDS011;21057;51.024;7.540;2023-02-20T09:35:14;40.90;;;36.97;;
15454;SDS011;21057;51.024;7.540;2023-02-20T09:37:46;39.27;;;35.20;;
15454;SDS011;21057;51.024;7.540;2023-02-20T09:40:17;42.27;;;38.10;;
15454;SDS011;21057;51.024;7.540;2023-02-20T09:45:41;40.50;;;36.40;;
15454;SDS011;21057;51.024;7.540;2023-02-20T09:48:19;43.47;;;39.20;;
15454;SDS011;21057;51.024;7.540;2023-02-20T09:51:01;42.33;;;38.20;;
15454;SDS011;21057;51.024;7.540;2023-02-20T09:53:33;42.87;;;38.90;;
15454;SDS011;21057;51.024;7.540;2023-02-20T09:56:05;38.60;;;34.93;;
15454;SDS011;21057;51.024;7.540;2023-02-20T09:58:40;44.47;;;40.20;;
15454;SDS011;21057;51.024;7.540;2023-02-20T10:01:10;43.33;;;39.17;;
15454;SDS011;21057;51.024;7.540;2023-02-20T10:03:45;41.17;;;37.23;;
15454;SDS011;21057;51.024;7.540;2023-02-20T10:06:21;43.00;;;38.83;;
15454;SDS011;21057;51.024;7.540;2023-02-20T10:08:53;41.47;;;37.53;;
15454;SDS011;21057;51.024;7.540;2023-02-20T10:11:26;38.23;;;35.17;;
15454;SDS011;21057;51.024;7.540;2023-02-20T10:14:12;42.60;;;38.10;;
15454;SDS011;21057;51.024;7.540;2023-02-20T10:16:49;37.67;;;34.20;;
15454;SDS011;21057;51.024;7.540;2023-02-20T10:19:25;39.80;;;35.83;;
15454;SDS011;21057;51.024;7.540;2023-02-20T10:22:02;37.73;;;34.40;;
15454;SDS011;21057;51.024;7.540;2023-02-20T10:24:45;37.23;;;34.03;;
15454;SDS011;21057;51.024;7.540;2023-02-20T10:27:30;38.73;;;34.90;;
15454;SDS011;21057;51.024;7.540;2023-02-20T10:29:59;37.20;;;33.57;;
15454;SDS011;21057;51.024;7.540;2023-02-20T10:32:37;38.07;;;34.60;;
15454;SDS011;21057;51.024;7.540;2023-02-20T10:35:09;34.73;;;31.40;;
15454;SDS011;21057;51.024;7.540;2023-02-20T10:37:46;35.23;;;32.40;;
15454;SDS011;21057;51.024;7.540;2023-02-20T10:40:19;36.57;;;32.67;;
15454;SDS011;21057;51.024;7.540;2023-02-20T10:42:53;36.47;;;33.33;;
15454;SDS011;21057;51.024;7.540;2023-02-20T10:45:28;36.63;;;33.07;;
15454;SDS011;21057;51.024;7.540;2023-02-20T10:48:02;35.13;;;32.30;;
15454;SDS011;21057;51.024;7.540;2023-02-20T10:50:35;34.40;;;31.50;;
15454;SDS011;21057;51.024;7.540;2023-02-20T10:53:09;33.73;;;31.03;;
15454;SDS011;21057;51.024;7.540;2023-02-20T10:55:51;34.30;;;31.33;;
15454;SDS011;21057;51.024;7.540;2023-02-20T10:58:22;34.40;;;31.57;;
15454;SDS011;21057;51.024;7.540;2023-02-20T11:00:57;35.87;;;33.03;;
15454;SDS011;21057;51.024;7.540;2023-02-20T11:03:28;36.60;;;33.63;;
15454;SDS011;21057;51.024;7.540;2023-02-20T11:06:02;33.23;;;30.73;;
15454;SDS011;21057;51.024;7.540;2023-02-20T11:08:43;33.27;;;30.77;;
15454;SDS011;21057;51.024;7.540;2023-02-20T11:14:00;32.57;;;30.10;;
15454;SDS011;21057;51.024;7.540;2023-02-20T11:16:35;33.23;;;30.07;;
15454;SDS011;21057;51.024;7.540;2023-02-20T11:19:07;34.53;;;31.63;;
15454;SDS011;21057;51.024;7.540;2023-02-20T11:21:44;33.20;;;30.60;;
15454;SDS011;21057;51.024;7.540;2023-02-20T11:27:08;36.07;;;33.07;;
15454;SDS011;21057;51.024;7.540;2023-02-20T11:29:42;35.83;;;32.67;;
15454;SDS011;21057;51.024;7.540;2023-02-20T11:32:21;31.83;;;29.43;;
15454;SDS011;21057;51.024;7.540;2023-02-20T11:37:49;33.67;;;30.87;;
15454;SDS011;21057;51.024;7.540;2023-02-20T11:40:37;33.23;;;30.87;;
15454;SDS011;21057;51.024;7.540;2023-02-20T11:43:09;34.67;;;31.73;;
15454;SDS011;21057;51.024;7.540;2023-02-20T11:45:41;33.30;;;30.37;;
15454;SDS011;21057;51.024;7.540;2023-02-20T11:48:09;35.70;;;32.90;;
15454;SDS011;21057;51.024;7.540;2023-02-20T11:50:45;32.77;;;30.17;;
15454;SDS011;21057;51.024;7.540;2023-02-20T11:53:17;33.70;;;30.73;;
15454;SDS011;21057;51.024;7.540;2023-02-20T11:55:46;35.57;;;32.43;;
15454;SDS011;21057;51.024;7.540;2023-02-20T11:58:21;35.27;;;32.27;;
15454;SDS011;21057;51.024;7.540;2023-02-20T12:00:50;34.53;;;31.87;;
15454;SDS011;21057;51.024;7.540;2023-02-20T12:03:20;36.33;;;33.27;;
15454;SDS011;21057;51.024;7.540;2023-02-20T12:05:48;34.67;;;31.10;;
15454;SDS011;21057;51.024;7.540;2023-02-20T12:11:05;34.20;;;31.13;;
15454;SDS011;21057;51.024;7.540;2023-02-20T12:13:35;34.63;;;31.27;;
15454;SDS011;21057;51.024;7.540;2023-02-20T12:18:50;30.33;;;27.80;;
15454;SDS011;21057;51.024;7.540;2023-02-20T12:21:26;32.20;;;29.13;;
15454;SDS011;21057;51.024;7.540;2023-02-20T12:24:08;30.33;;;27.77;;
15454;SDS011;21057;51.024;7.540;2023-02-20T12:26:47;31.47;;;28.77;;
15454;SDS011;21057;51.024;7.540;2023-02-20T12:32:19;32.53;;;29.43;;
15454;SDS011;21057;51.024;7.540;2023-02-20T12:37:56;29.97;;;27.57;;
15454;SDS011;21057;51.024;7.540;2023-02-20T12:41:05;32.20;;;29.23;;
15454;SDS011;21057;51.024;7.540;2023-02-20T12:43:47;31.77;;;29.17;;
15454;SDS011;21057;51.024;7.540;2023-02-20T12:46:24;32.87;;;29.63;;
15454;SDS011;21057;51.024;7.540;2023-02-20T12:49:09;30.23;;;27.60;;
15454;SDS011;21057;51.024;7.540;2023-02-20T12:51:49;30.60;;;28.23;;
15454;SDS011;21057;51.024;7.540;2023-02-20T12:54:26;31.00;;;28.37;;
15454;SDS011;21057;51.024;7.540;2023-02-20T12:57:05;33.20;;;30.37;;
15454;SDS011;21057;51.024;7.540;2023-02-20T12:59:39;29.80;;;27.20;;
15454;SDS011;21057;51.024;7.540;2023-02-20T13:02:19;30.83;;;28.23;;
15454;SDS011;21057;51.024;7.540;2023-02-20T13:04:51;30.83;;;28.50;;
15454;SDS011;21057;51.024;7.540;2023-02-20T13:07:20;33.37;;;30.37;;
15454;SDS011;21057;51.024;7.540;2023-02-20T13:09:57;32.67;;;29.87;;
15454;SDS011;21057;51.024;7.540;2023-02-20T13:12:28;32.67;;;30.07;;
15454;SDS011;21057;51.024;7.540;2023-02-20T13:14:58;29.97;;;27.57;;
15454;SDS011;21057;51.024;7.540;2023-02-20T13:17:35;31.93;;;29.17;;
15454;SDS011;21057;51.024;7.540;2023-02-20T13:20:14;31.60;;;28.90;;
15454;SDS011;21057;51.024;7.540;2023-02-20T13:22:56;32.17;;;29.70;;
15454;SDS011;21057;51.024;7.540;2023-02-20T13:25:34;31.97;;;29.27;;
15454;SDS011;21057;51.024;7.540;2023-02-20T13:28:20;34.00;;;30.80;;
15454;SDS011;21057;51.024;7.540;2023-02-20T13:31:06;31.27;;;28.67;;
15454;SDS011;21057;51.024;7.540;2023-02-20T13:33:37;31.47;;;28.73;;
15454;SDS011;21057;51.024;7.540;2023-02-20T13:36:05;35.83;;;32.43;;
15454;SDS011;21057;51.024;7.540;2023-02-20T13:38:55;34.63;;;31.80;;
15454;SDS011;21057;51.024;7.540;2023-02-20T13:48:17;34.50;;;30.93;;
15454;SDS011;21057;51.024;7.540;2023-02-20T13:50:47;36.70;;;33.53;;
15454;SDS011;21057;51.024;7.540;2023-02-20T13:53:14;36.63;;;33.33;;
15454;SDS011;21057;51.024;7.540;2023-02-20T13:55:41;36.47;;;32.87;;
15454;SDS011;21057;51.024;7.540;2023-02-20T13:58:18;36.87;;;33.33;;
15454;SDS011;21057;51.024;7.540;2023-02-20T14:00:46;37.67;;;34.03;;
15454;SDS011;21057;51.024;7.540;2023-02-20T14:03:20;34.87;;;31.87;;
15454;SDS011;21057;51.024;7.540;2023-02-20T14:06:06;36.13;;;33.17;;
15454;SDS011;21057;51.024;7.540;2023-02-20T14:08:43;34.80;;;31.80;;
15454;SDS011;21057;51.024;7.540;2023-02-20T14:11:11;35.73;;;32.23;;
15454;SDS011;21057;51.024;7.540;2023-02-20T14:13:42;35.17;;;31.90;;
15454;SDS011;21057;51.024;7.540;2023-02-20T14:16:28;34.43;;;31.67;;
15454;SDS011;21057;51.024;7.540;2023-02-20T14:18:57;33.47;;;30.40;;
15454;SDS011;21057;51.024;7.540;2023-02-20T14:21:27;35.87;;;32.60;;
15454;SDS011;21057;51.024;7.540;2023-02-20T14:23:56;35.37;;;31.77;;
15454;SDS011;21057;51.024;7.540;2023-02-20T14:26:40;33.27;;;30.43;;
15454;SDS011;21057;51.024;7.540;2023-02-20T14:29:18;32.10;;;29.50;;
15454;SDS011;21057;51.024;7.540;2023-02-20T14:31:48;35.57;;;32.40;;
15454;SDS011;21057;51.024;7.540;2023-02-20T14:34:18;35.30;;;32.30;;
15454;SDS011;21057;51.024;7.540;2023-02-20T14:36:55;33.50;;;30.43;;
15454;SDS011;21057;51.024;7.540;2023-02-20T14:39:36;32.67;;;29.67;;
15454;SDS011;21057;51.024;7.540;2023-02-20T14:42:13;32.63;;;29.50;;
15454;SDS011;21057;51.024;7.540;2023-02-20T14:44:41;32.30;;;29.50;;
15454;SDS011;21057;51.024;7.540;2023-02-20T14:49:39;32.00;;;29.23;;
15454;SDS011;21057;51.024;7.540;2023-02-20T14:52:12;31.93;;;29.13;;
15454;SDS011;21057;51.024;7.540;2023-02-20T14:54:41;32.17;;;29.47;;
15454;SDS011;21057;51.024;7.540;2023-02-20T14:57:20;32.63;;;29.60;;
15454;SDS011;21057;51.024;7.540;2023-02-20T14:59:47;33.67;;;30.57;;
15454;SDS011;21057;51.024;7.540;2023-02-20T15:02:16;32.47;;;29.73;;
15454;SDS011;21057;51.024;7.540;2023-02-20T15:04:46;34.50;;;31.70;;
15454;SDS011;21057;51.024;7.540;2023-02-20T15:07:24;33.17;;;30.03;;
15454;SDS011;21057;51.024;7.540;2023-02-20T15:09:55;33.43;;;30.27;;
15454;SDS011;21057;51.024;7.540;2023-02-20T15:12:25;32.50;;;29.63;;
15454;SDS011;21057;51.024;7.540;2023-02-20T15:14:57;32.20;;;29.40;;
15454;SDS011;21057;51.024;7.540;2023-02-20T15:17:27;31.83;;;28.97;;
15454;SDS011;21057;51.024;7.540;2023-02-20T15:22:50;34.23;;;31.30;;
15454;SDS011;21057;51.024;7.540;2023-02-20T15:25:33;32.53;;;29.83;;
15454;SDS011;21057;51.024;7.540;2023-02-20T15:28:04;33.20;;;30.20;;
15454;SDS011;21057;51.024;7.540;2023-02-20T15:30:37;34.00;;;30.90;;
15454;SDS011;21057;51.024;7.540;2023-02-20T15:35:57;35.97;;;32.67;;
15454;SDS011;21057;51.024;7.540;2023-02-20T15:38:26;32.83;;;30.03;;
15454;SDS011;21057;51.024;7.540;2023-02-20T15:40:55;35.60;;;31.70;;
15454;SDS011;21057;51.024;7.540;2023-02-20T15:43:23;35.93;;;32.70;;